Terminal Aerodrome Forecast
Issued by NWS

Home | Current Version | Previous Version | Text Only | Print | Product List | Glossary Off
Versions: 1 2 3 4 5 6 7 8 9 10 11 12

068
FTUS45 KGGW 252320
TAFSDY
TAF
KSDY 252320Z 2600/2624 28007KT P6SM BKN110
     FM262100 29008KT P6SM FEW100=

USA.gov is the U.S. government's official web portal to all federal, state and local government web resources and services.